Terminal Aerodrome Forecast
Issued by NWS

Home | Current Version | Previous Version | Text Only | Print | Product List | Glossary On
Versions: 1 2 3 4 5 6 7 8 9 10 11 12 13 14 15 16
000
FTAK31 PAJN 191700 RRA
TAFAKT
TAF
PAKT 191741Z 1918/2018 14015G25KT P6SM -RA OVC040 WS020/12035KT
     FM192100 14018G28KT P6SM -RA BKN030 OVC050 WS020/12035KT
     FM200300 14020G34KT 6SM -RA BR BKN025 OVC040 WS020/16040KT
     FM200900 14018G28KT 4SM -RA BR BKN015 OVC025 WS020/16035KT
     FM201500 16011KT 6SM -RA BR BKN025 OVC050
      AMD LTD TO CLD VIS AND WIND 2006/2015=

USA.gov is the U.S. government's official web portal to all federal, state and local government web resources and services.